createdAt,value
2019-02-22T00:01:15.043Z,63.00
2019-02-22T00:02:31.912Z,63.00
2019-02-22T00:03:34.707Z,69.50
2019-02-22T00:04:37.492Z,66.50
2019-02-22T00:05:40.341Z,67.75
2019-02-22T00:06:43.203Z,66.50
2019-02-22T00:07:46.293Z,64.50
2019-02-22T00:08:56.097Z,67.00
2019-02-22T00:10:00.462Z,69.25
2019-02-22T00:11:03.259Z,67.50
2019-02-22T00:12:06.057Z,69.75
2019-02-22T00:13:10.287Z,67.25
2019-02-22T00:14:25.160Z,65.00
2019-02-22T00:15:30.941Z,69.00
2019-02-22T00:16:33.771Z,68.00
2019-02-22T00:17:38.729Z,65.75
2019-02-22T00:18:41.596Z,63.50
2019-02-22T00:19:44.371Z,66.50
2019-02-22T00:20:47.451Z,70.00
2019-02-22T00:21:50.407Z,65.50
2019-02-22T00:22:54.059Z,67.75
2019-02-22T00:23:59.670Z,64.00
2019-02-22T00:25:02.462Z,68.75
2019-02-22T00:26:05.311Z,64.50
2019-02-22T00:27:08.462Z,70.25
2019-02-22T00:28:11.267Z,69.50
2019-02-22T00:29:14.066Z,68.25
2019-02-22T00:30:16.846Z,68.75
2019-02-22T00:31:19.642Z,67.25
2019-02-22T00:32:22.530Z,64.50
2019-02-22T00:33:25.649Z,64.00
2019-02-22T00:34:28.858Z,66.00
2019-02-22T00:35:31.749Z,65.25
2019-02-22T00:36:36.995Z,67.25
2019-02-22T00:37:39.822Z,66.25
2019-02-22T00:38:42.648Z,66.25
2019-02-22T00:39:46.304Z,63.25
2019-02-22T00:40:49.160Z,59.50
2019-02-22T00:41:51.961Z,62.25
2019-02-22T00:42:55.169Z,61.50
2019-02-22T00:43:57.962Z,65.50
2019-02-22T00:45:00.779Z,64.75
2019-02-22T00:46:10.446Z,62.75
2019-02-22T00:47:18.249Z,62.50
2019-02-22T00:48:21.135Z,63.00
2019-02-22T00:49:26.942Z,62.50
2019-02-22T00:50:29.829Z,60.00
2019-02-22T00:51:34.645Z,59.00
2019-02-22T00:52:37.722Z,62.75
2019-02-22T00:53:40.507Z,62.00
2019-02-22T00:54:43.304Z,61.25
2019-02-22T00:55:50.062Z,62.00
2019-02-22T00:56:52.860Z,60.50
2019-02-22T00:57:55.635Z,60.50
2019-02-22T00:59:01.614Z,63.75
2019-02-22T01:00:16.902Z,60.25
2019-02-22T01:01:19.665Z,57.00
2019-02-22T01:02:23.882Z,60.25
2019-02-22T01:03:29.756Z,62.75
2019-02-22T01:04:35.032Z,61.25
2019-02-22T01:05:38.172Z,60.75
2019-02-22T01:06:43.579Z,59.00
2019-02-22T01:07:46.391Z,60.50
2019-02-22T01:08:49.232Z,59.00
2019-02-22T01:09:52.204Z,59.75
2019-02-22T01:10:54.950Z,59.75
2019-02-22T01:11:58.092Z,57.00
2019-02-22T01:13:00.869Z,58.25
2019-02-22T01:14:03.677Z,57.00
2019-02-22T01:15:06.522Z,57.75
2019-02-22T01:16:09.378Z,56.50
2019-02-22T01:17:12.249Z,56.50
2019-02-22T01:18:15.334Z,57.25
2019-02-22T01:19:18.179Z,54.75
2019-02-22T01:20:21.041Z,54.25
2019-02-22T01:21:23.830Z,55.00
2019-02-22T01:22:26.692Z,55.75
2019-02-22T01:23:29.439Z,57.00
2019-02-22T01:24:34.293Z,55.25
2019-02-22T01:25:37.148Z,53.00
2019-02-22T01:26:39.954Z,51.50
2019-02-22T01:27:42.721Z,57.50
2019-02-22T01:28:45.526Z,51.00
2019-02-22T01:29:48.324Z,55.75
2019-02-22T01:30:51.929Z,54.25
2019-02-22T01:31:54.724Z,50.00
2019-02-22T01:32:57.560Z,49.25
2019-02-22T01:34:00.349Z,50.50
2019-02-22T01:35:03.364Z,51.50
2019-02-22T01:36:06.204Z,56.25
2019-02-22T01:37:09.290Z,46.50
2019-02-22T01:38:12.101Z,45.50
2019-02-22T01:39:14.872Z,51.50
2019-02-22T01:40:18.117Z,47.50
2019-02-22T01:41:20.954Z,40.25
2019-02-22T01:42:23.717Z,41.00
2019-02-22T01:43:26.822Z,44.00
2019-02-22T01:44:29.627Z,42.00
2019-02-22T01:45:32.485Z,38.75
2019-02-22T01:46:35.368Z,38.00
2019-02-22T01:47:38.142Z,41.25
2019-02-22T01:48:40.955Z,43.25
2019-02-22T01:49:46.782Z,33.50
2019-02-22T01:50:49.581Z,42.00
2019-02-22T01:51:52.422Z,39.50
2019-02-22T01:52:55.233Z,37.50
2019-02-22T01:53:58.411Z,37.50
2019-02-22T01:55:01.201Z,42.50
2019-02-22T01:56:04.305Z,42.75
2019-02-22T01:57:07.153Z,41.75
2019-02-22T01:58:09.954Z,36.00
2019-02-22T01:59:12.746Z,38.25
2019-02-22T02:00:15.831Z,41.00
2019-02-22T02:01:18.643Z,33.75
2019-02-22T02:02:21.791Z,33.50
2019-02-22T02:03:24.559Z,37.25
2019-02-22T02:04:30.409Z,38.50
2019-02-22T02:05:33.269Z,34.00
2019-02-22T02:06:36.067Z,38.50
2019-02-22T02:07:39.321Z,33.25
2019-02-22T02:08:42.496Z,32.25
2019-02-22T02:09:45.362Z,38.75
2019-02-22T02:10:54.159Z,27.25
2019-02-22T02:11:52.588Z,31.50
2019-02-22T02:12:55.378Z,35.00
2019-02-22T02:13:58.229Z,37.50
2019-02-22T02:15:01.286Z,35.25
2019-02-22T02:16:06.612Z,31.50
2019-02-22T02:17:09.396Z,31.75
2019-02-22T02:18:12.637Z,28.00
2019-02-22T02:19:15.494Z,36.00
2019-02-22T02:20:18.299Z,30.75
2019-02-22T02:21:21.380Z,36.75
2019-02-22T02:22:24.196Z,32.25
2019-02-22T02:23:26.987Z,31.75
2019-02-22T02:24:29.839Z,31.00
2019-02-22T02:25:32.615Z,32.75
2019-02-22T02:26:35.811Z,32.75
2019-02-22T02:27:38.872Z,32.50
2019-02-22T02:28:41.645Z,32.00
2019-02-22T02:29:44.505Z,27.25
2019-02-22T02:30:53.387Z,33.50
2019-02-22T02:31:58.214Z,30.50
2019-02-22T02:33:01.023Z,33.75
2019-02-22T02:34:05.646Z,29.50
2019-02-22T02:35:08.403Z,29.00
2019-02-22T02:36:39.511Z,33.75
2019-02-22T02:38:00.127Z,26.75
2019-02-22T02:39:00.568Z,32.00
2019-02-22T02:40:03.449Z,26.75
2019-02-22T02:41:10.166Z,27.25
2019-02-22T02:42:11.118Z,30.75
2019-02-22T02:43:13.963Z,29.50
2019-02-22T02:44:17.117Z,26.50
2019-02-22T02:45:19.896Z,31.25
2019-02-22T02:46:22.765Z,28.75
2019-02-22T02:47:26.275Z,27.00
2019-02-22T02:48:29.068Z,26.00
2019-02-22T02:49:31.857Z,31.75
2019-02-22T02:50:34.638Z,30.50
2019-02-22T02:51:39.969Z,30.25
2019-02-22T02:52:42.732Z,31.50
2019-02-22T02:53:57.655Z,29.00
2019-02-22T02:55:04.774Z,31.25
2019-02-22T02:56:07.567Z,28.50
2019-02-22T02:57:13.399Z,24.50
2019-02-22T02:58:35.250Z,29.00
2019-02-22T02:59:44.303Z,25.50
2019-02-22T03:00:49.337Z,30.25
2019-02-22T03:02:01.106Z,30.25
2019-02-22T03:03:05.491Z,28.00
2019-02-22T03:04:14.258Z,31.75
2019-02-22T03:05:17.344Z,34.50
2019-02-22T03:06:25.653Z,29.75
2019-02-22T03:07:45.269Z,30.00
2019-02-22T03:08:54.264Z,25.25
2019-02-22T03:09:54.627Z,27.75
2019-02-22T03:10:57.425Z,28.50
2019-02-22T03:12:00.521Z,28.50
2019-02-22T03:13:03.306Z,28.50
2019-02-22T03:14:06.154Z,29.25
2019-02-22T03:15:09.022Z,32.75
2019-02-22T03:16:11.811Z,32.25
2019-02-22T03:17:14.633Z,28.00
2019-02-22T03:18:20.737Z,29.00
2019-02-22T03:19:26.079Z,28.75
2019-02-22T03:20:31.413Z,27.50
2019-02-22T03:21:33.748Z,32.25
2019-02-22T03:22:36.550Z,32.00
2019-02-22T03:23:39.346Z,25.75
2019-02-22T03:24:42.524Z,29.50
2019-02-22T03:25:45.350Z,29.75
2019-02-22T03:26:48.577Z,23.75
2019-02-22T03:27:51.370Z,35.75
2019-02-22T03:28:54.156Z,25.75
2019-02-22T03:29:57.071Z,31.25
2019-02-22T03:31:00.132Z,30.50
2019-02-22T03:32:02.943Z,28.25
2019-02-22T03:33:05.785Z,28.75
2019-02-22T03:34:08.564Z,30.00
2019-02-22T03:35:14.090Z,30.75
2019-02-22T03:36:21.089Z,30.00
2019-02-22T03:37:21.670Z,30.50
2019-02-22T03:38:24.508Z,29.00
2019-02-22T03:39:27.333Z,28.25
2019-02-22T03:40:30.142Z,31.00
2019-02-22T03:41:33.598Z,29.00
2019-02-22T03:42:36.611Z,26.50
2019-02-22T03:43:39.795Z,24.75
2019-02-22T03:44:42.635Z,31.00
2019-02-22T03:45:45.484Z,25.50
2019-02-22T03:46:48.299Z,26.75
2019-02-22T03:47:51.159Z,29.25
2019-02-22T03:48:53.943Z,25.75
2019-02-22T03:49:57.014Z,29.50
2019-02-22T03:50:59.902Z,28.25
2019-02-22T03:52:21.259Z,28.25
2019-02-22T03:53:33.481Z,23.25
2019-02-22T03:54:36.288Z,21.00
2019-02-22T03:55:39.098Z,23.25
2019-02-22T03:56:42.163Z,22.75
2019-02-22T03:57:45.389Z,24.25
2019-02-22T03:58:48.249Z,24.00
2019-02-22T03:59:51.472Z,24.75
2019-02-22T04:00:54.262Z,23.75
2019-02-22T04:01:57.095Z,22.00
2019-02-22T04:03:00.238Z,21.00
2019-02-22T04:04:09.293Z,21.00
2019-02-22T04:05:12.141Z,21.00
2019-02-22T04:06:17.209Z,22.00
2019-02-22T04:07:20.066Z,22.75
2019-02-22T04:08:22.883Z,24.50
2019-02-22T04:09:25.965Z,23.50
2019-02-22T04:10:28.796Z,21.25
2019-02-22T04:11:31.596Z,22.00
2019-02-22T04:12:34.473Z,20.50
2019-02-22T04:13:37.242Z,20.50
2019-02-22T04:14:45.138Z,23.75
2019-02-22T04:15:48.343Z,21.50
2019-02-22T04:16:51.157Z,20.25
2019-02-22T04:17:54.367Z,24.75
2019-02-22T04:18:57.170Z,23.50
2019-02-22T04:20:01.097Z,22.50
2019-02-22T04:21:03.935Z,22.50
2019-02-22T04:22:07.005Z,27.50
2019-02-22T04:23:09.794Z,26.75
2019-02-22T04:24:12.600Z,23.00
2019-02-22T04:25:15.380Z,22.00
2019-02-22T04:26:18.260Z,24.75
2019-02-22T04:27:21.047Z,24.00
2019-02-22T04:28:23.887Z,25.25
2019-02-22T04:29:26.701Z,22.00
2019-02-22T04:30:29.558Z,15.50
2019-02-22T04:31:32.377Z,24.00
2019-02-22T04:32:35.148Z,21.00
2019-02-22T04:33:40.228Z,25.00
2019-02-22T04:34:43.334Z,20.00
2019-02-22T04:35:46.185Z,23.00
2019-02-22T04:36:48.973Z,19.50
2019-02-22T04:37:51.849Z,17.25
2019-02-22T04:38:54.643Z,22.75
2019-02-22T04:39:57.413Z,24.75
2019-02-22T04:41:00.538Z,20.00
2019-02-22T04:42:03.380Z,18.00
2019-02-22T04:43:06.181Z,20.50
2019-02-22T04:44:09.423Z,19.25
2019-02-22T04:45:12.654Z,18.00
2019-02-22T04:46:17.943Z,16.50
2019-02-22T04:47:20.248Z,19.50
2019-02-22T04:48:23.043Z,20.00
2019-02-22T04:49:25.891Z,18.50
2019-02-22T04:50:29.201Z,16.75
2019-02-22T04:51:32.080Z,17.50
2019-02-22T04:52:34.858Z,17.75
2019-02-22T04:53:39.101Z,20.00
2019-02-22T04:54:41.967Z,20.00
2019-02-22T04:55:44.929Z,18.00
2019-02-22T04:56:48.411Z,17.25
2019-02-22T04:57:51.395Z,15.00
2019-02-22T04:58:54.261Z,18.25
2019-02-22T05:00:00.534Z,16.00
2019-02-22T05:01:04.107Z,15.00
2019-02-22T05:02:06.885Z,16.25
2019-02-22T05:03:10.099Z,17.00
2019-02-22T05:04:12.893Z,16.25
2019-02-22T05:05:15.758Z,17.00
2019-02-22T05:06:19.883Z,16.50
2019-02-22T05:07:22.659Z,19.25
2019-02-22T05:08:26.046Z,17.00
2019-02-22T05:09:28.865Z,13.25
2019-02-22T05:10:31.644Z,18.00
2019-02-22T05:11:34.448Z,17.50
2019-02-22T05:12:39.987Z,13.50
2019-02-22T05:13:42.821Z,16.50
2019-02-22T05:14:45.637Z,15.50
2019-02-22T05:15:48.437Z,14.50
2019-02-22T05:16:51.219Z,16.50
2019-02-22T05:17:54.016Z,14.00
2019-02-22T05:18:57.154Z,16.00
2019-02-22T05:19:59.925Z,17.50
2019-02-22T05:21:02.738Z,17.25
2019-02-22T05:22:05.967Z,17.00
2019-02-22T05:23:09.105Z,15.00
2019-02-22T05:24:11.927Z,15.00
2019-02-22T05:25:16.975Z,16.25
2019-02-22T05:26:21.683Z,17.00
2019-02-22T05:27:24.482Z,15.00
2019-02-22T05:28:27.246Z,15.00
2019-02-22T05:29:30.085Z,16.00
2019-02-22T05:30:32.952Z,14.25
2019-02-22T05:31:37.185Z,16.25
2019-02-22T05:32:39.972Z,12.75
2019-02-22T05:33:42.828Z,15.00
2019-02-22T05:34:45.624Z,13.25
2019-02-22T05:35:49.457Z,13.50
2019-02-22T05:36:52.281Z,13.00
2019-02-22T05:37:55.425Z,13.00
2019-02-22T05:38:58.209Z,16.00
2019-02-22T05:40:03.741Z,18.75
2019-02-22T05:41:06.616Z,15.00
2019-02-22T05:42:09.403Z,10.75
2019-02-22T05:43:12.187Z,12.00
2019-02-22T05:44:15.248Z,12.75
2019-02-22T05:45:20.331Z,13.00
2019-02-22T05:46:23.229Z,17.75
2019-02-22T05:47:27.372Z,11.00
2019-02-22T05:48:30.199Z,11.00
2019-02-22T05:49:33.082Z,13.00
2019-02-22T05:50:35.861Z,15.25
2019-02-22T05:51:38.762Z,15.00
2019-02-22T05:52:41.635Z,13.00
2019-02-22T05:53:45.757Z,11.75
2019-02-22T05:54:48.642Z,15.00
2019-02-22T05:55:51.839Z,14.50
2019-02-22T05:56:55.240Z,10.00
2019-02-22T05:57:58.607Z,10.50
2019-02-22T05:59:01.425Z,9.00
2019-02-22T06:00:04.242Z,8.00
2019-02-22T06:01:07.107Z,10.00
2019-02-22T06:02:10.316Z,10.25
2019-02-22T06:03:13.153Z,12.25
2019-02-22T06:04:15.906Z,8.00
2019-02-22T06:05:18.570Z,9.50
2019-02-22T06:06:21.343Z,10.75
2019-02-22T06:07:24.196Z,11.00
2019-02-22T06:08:27.102Z,9.00
2019-02-22T06:09:29.824Z,8.00
2019-02-22T06:10:34.064Z,7.00
2019-02-22T06:11:36.705Z,8.50
2019-02-22T06:12:42.934Z,8.50
2019-02-22T06:13:45.721Z,13.00
2019-02-22T06:14:48.927Z,13.00
2019-02-22T06:15:51.836Z,17.50
2019-02-22T06:16:55.330Z,15.50
2019-02-22T06:17:58.197Z,16.00
2019-02-22T06:19:01.403Z,15.00
2019-02-22T06:20:04.279Z,17.50
2019-02-22T06:21:07.509Z,19.25
2019-02-22T06:22:11.519Z,17.75
2019-02-22T06:23:14.298Z,23.25
2019-02-22T06:24:23.090Z,20.00
2019-02-22T06:25:28.729Z,22.75
2019-02-22T06:26:33.810Z,47.00
2019-02-22T06:27:37.415Z,22.75
2019-02-22T06:28:41.284Z,18.25
2019-02-22T06:29:44.110Z,13.50
2019-02-22T06:43:48.043Z,11.00
2019-02-22T06:44:50.895Z,11.75
2019-02-22T06:45:53.688Z,12.00
2019-02-22T06:46:56.407Z,9.00
2019-02-22T06:48:02.103Z,9.00
2019-02-22T06:49:05.139Z,9.50
2019-02-22T06:50:11.023Z,11.00
2019-02-22T06:51:13.735Z,8.75
2019-02-22T06:52:16.347Z,8.50
2019-02-22T06:53:20.286Z,9.00
2019-02-22T06:54:25.257Z,8.00
2019-02-22T06:55:28.388Z,8.25
2019-02-22T06:56:31.011Z,8.00
2019-02-22T06:57:37.383Z,6.50
2019-02-22T06:58:40.061Z,6.00
2019-02-22T06:59:43.172Z,6.00
2019-02-22T07:00:46.343Z,6.00
2019-02-22T07:01:50.112Z,6.50
2019-02-22T07:02:52.909Z,7.50
2019-02-22T07:03:55.687Z,10.75
2019-02-22T07:04:58.553Z,12.50
2019-02-22T07:06:01.352Z,10.75
2019-02-22T07:07:04.067Z,9.75
2019-02-22T07:08:07.307Z,8.25
2019-02-22T07:09:10.176Z,13.00
2019-02-22T07:10:13.368Z,10.25
2019-02-22T07:11:32.889Z,11.00
2019-02-22T07:12:42.740Z,7.00
2019-02-22T07:13:45.594Z,10.00
2019-02-22T07:14:48.701Z,10.00
2019-02-22T07:15:51.366Z,8.50
2019-02-22T07:16:54.122Z,8.00
2019-02-22T07:17:58.660Z,10.00
2019-02-22T07:19:01.299Z,8.00
2019-02-22T07:20:03.976Z,6.00
2019-02-22T07:21:17.254Z,10.50
2019-02-22T07:22:19.053Z,7.00
2019-02-22T07:23:24.931Z,10.00
2019-02-22T07:24:28.273Z,7.00
2019-02-22T07:25:31.054Z,10.00
2019-02-22T07:27:47.846Z,10.00
2019-02-22T07:28:51.212Z,6.50
2019-02-22T07:30:00.333Z,8.00
2019-02-22T07:31:08.735Z,7.50
2019-02-22T07:32:11.453Z,6.00
2019-02-22T07:33:14.169Z,6.00
2019-02-22T07:34:17.129Z,8.00
2019-02-22T07:35:20.055Z,6.00
2019-02-22T07:36:23.156Z,8.00
2019-02-22T07:37:26.718Z,8.00
2019-02-22T07:38:29.332Z,8.00
2019-02-22T07:39:31.974Z,7.50
2019-02-22T07:40:38.198Z,6.00
2019-02-22T07:41:41.103Z,6.00
2019-02-22T07:42:43.850Z,6.00
2019-02-22T07:43:47.103Z,8.00
2019-02-22T07:44:49.787Z,7.50
2019-02-22T07:45:54.046Z,7.50
2019-02-22T07:46:57.137Z,8.00
2019-02-22T07:48:02.188Z,8.00
2019-02-22T07:49:05.223Z,8.00
2019-02-22T07:50:08.601Z,8.00
2019-02-22T07:51:21.879Z,7.00
2019-02-22T07:52:24.589Z,5.75
2019-02-22T07:53:27.789Z,5.25
2019-02-22T07:54:30.723Z,6.00
2019-02-22T07:55:33.608Z,7.50
2019-02-22T07:56:36.419Z,6.00
2019-02-22T07:57:40.171Z,10.00
2019-02-22T07:58:43.271Z,10.00
2019-02-22T07:59:46.484Z,8.00
2019-02-22T08:00:49.308Z,8.00
2019-02-22T08:01:55.379Z,5.00
2019-02-22T08:02:58.164Z,5.50
2019-02-22T08:04:00.900Z,6.00
2019-02-22T08:05:09.149Z,4.75
2019-02-22T08:06:10.537Z,10.00
2019-02-22T08:07:13.400Z,19.50
2019-02-22T08:08:16.554Z,18.00
2019-02-22T08:09:22.236Z,15.00
2019-02-22T08:10:26.292Z,15.50
2019-02-22T08:11:29.672Z,15.75
2019-02-22T08:12:35.443Z,24.75
2019-02-22T08:13:38.347Z,17.25
2019-02-22T08:14:41.296Z,16.50
2019-02-22T08:15:44.563Z,21.75
2019-02-22T08:16:50.399Z,19.00
2019-02-22T08:17:52.773Z,22.00
2019-02-22T08:19:04.594Z,31.00
2019-02-22T08:20:07.418Z,27.75
2019-02-22T08:21:13.361Z,24.00
2019-02-22T08:22:16.206Z,22.75
2019-02-22T08:23:21.203Z,23.00
2019-02-22T08:24:26.234Z,14.75
2019-02-22T08:25:29.009Z,19.00
2019-02-22T08:26:31.822Z,13.50
2019-02-22T08:27:36.821Z,14.50
2019-02-22T08:28:39.809Z,13.75
2019-02-22T08:29:42.643Z,14.50
2019-02-22T08:30:45.964Z,10.50
2019-02-22T08:31:48.656Z,8.25
2019-02-22T08:32:54.071Z,6.00
2019-02-22T08:33:57.228Z,8.75
2019-02-22T08:35:02.959Z,6.25
2019-02-22T08:36:05.690Z,6.50
2019-02-22T08:37:10.810Z,6.50
2019-02-22T08:38:13.629Z,7.50
2019-02-22T08:39:16.319Z,6.00
2019-02-22T08:40:19.091Z,4.50
2019-02-22T08:41:21.756Z,6.75
2019-02-22T08:42:24.711Z,6.00
2019-02-22T08:43:31.481Z,4.50
2019-02-22T08:44:34.206Z,5.00
2019-02-22T08:47:18.097Z,9.00
2019-02-22T08:48:21.660Z,8.00
2019-02-22T08:49:24.682Z,5.50
2019-02-22T08:50:31.849Z,6.00
2019-02-22T08:51:34.487Z,7.75
2019-02-22T08:52:37.281Z,5.50
2019-02-22T08:53:40.382Z,4.75
2019-02-22T08:54:47.201Z,5.00
2019-02-22T08:55:48.273Z,9.00
2019-02-22T08:56:51.054Z,9.00
2019-02-22T08:57:57.901Z,9.25
2019-02-22T08:59:00.765Z,10.00
2019-02-22T09:00:03.483Z,8.00
2019-02-22T09:01:06.327Z,5.75
2019-02-22T09:02:09.388Z,7.50
2019-02-22T09:03:12.599Z,5.00
2019-02-22T09:04:15.541Z,7.00
2019-02-22T09:05:18.762Z,5.00
2019-02-22T09:06:21.619Z,7.00
2019-02-22T09:07:24.521Z,6.00
2019-02-22T09:08:30.523Z,6.25
2019-02-22T09:09:33.306Z,6.00
2019-02-22T09:10:36.583Z,7.00
2019-02-22T09:11:42.409Z,7.50
2019-02-22T09:12:45.231Z,7.00
2019-02-22T09:13:48.067Z,6.00
2019-02-22T09:14:52.564Z,4.00
2019-02-22T09:15:57.804Z,3.75
2019-02-22T09:17:01.184Z,5.50
2019-02-22T09:18:09.895Z,6.00
2019-02-22T09:19:15.157Z,5.00
2019-02-22T09:20:20.767Z,8.25
2019-02-22T09:21:23.991Z,10.75
2019-02-22T09:22:27.288Z,12.00
2019-02-22T09:23:30.087Z,7.50
2019-02-22T09:24:33.774Z,9.00
2019-02-22T09:25:38.784Z,12.00
2019-02-22T09:26:41.586Z,10.75
2019-02-22T09:27:50.871Z,6.50
2019-02-22T09:28:55.557Z,7.00
2019-02-22T09:29:59.214Z,4.50
2019-02-22T09:31:02.137Z,4.00
2019-02-22T09:32:06.639Z,6.00
2019-02-22T09:33:19.599Z,4.00
2019-02-22T09:34:22.947Z,4.00
2019-02-22T09:35:25.787Z,4.00
2019-02-22T09:36:28.813Z,6.00
2019-02-22T09:37:31.770Z,4.50
2019-02-22T09:38:34.709Z,4.00
2019-02-22T09:39:42.087Z,6.25
2019-02-22T09:40:47.799Z,6.00
2019-02-22T09:41:52.768Z,6.00
2019-02-22T09:42:55.690Z,6.00
2019-02-22T09:44:01.313Z,7.00
2019-02-22T09:45:04.183Z,6.75
2019-02-22T09:46:07.340Z,7.00
2019-02-22T09:47:10.119Z,6.50
2019-02-22T09:48:13.749Z,5.50
2019-02-22T09:49:16.410Z,6.00
2019-02-22T09:50:19.080Z,9.00
2019-02-22T09:51:21.749Z,8.00
2019-02-22T09:52:28.800Z,6.25
2019-02-22T09:53:31.533Z,6.00
2019-02-22T09:54:34.231Z,6.00
2019-02-22T09:55:36.918Z,7.00
2019-02-22T09:56:41.624Z,6.75
2019-02-22T09:57:46.120Z,6.25
2019-02-22T09:58:48.757Z,7.00
2019-02-22T09:59:51.438Z,9.00
2019-02-22T10:00:54.124Z,7.00
2019-02-22T10:01:59.753Z,7.00
2019-02-22T10:03:07.014Z,5.00
2019-02-22T10:04:11.454Z,8.25
2019-02-22T10:05:14.211Z,4.00
2019-02-22T10:06:20.217Z,6.00
2019-02-22T10:07:28.223Z,6.00
2019-02-22T10:08:31.016Z,6.00
2019-02-22T10:09:33.834Z,6.50
2019-02-22T10:10:39.343Z,6.00
2019-02-22T10:11:42.102Z,8.00
2019-02-22T10:12:45.077Z,6.25
2019-02-22T10:13:48.239Z,8.50
2019-02-22T10:14:51.359Z,7.00
2019-02-22T10:15:54.177Z,13.50
2019-02-22T10:16:57.064Z,8.00
2019-02-22T10:18:01.845Z,10.00
2019-02-22T10:19:07.237Z,9.00
2019-02-22T10:20:10.096Z,9.25
2019-02-22T10:21:13.339Z,7.50
2019-02-22T10:22:18.096Z,9.00
2019-02-22T10:23:20.898Z,7.00
2019-02-22T10:24:26.277Z,9.50
2019-02-22T10:25:30.438Z,10.50
2019-02-22T10:26:33.561Z,7.00
2019-02-22T10:27:36.366Z,6.00
2019-02-22T10:28:39.122Z,6.25
2019-02-22T10:29:45.717Z,6.00
2019-02-22T10:30:48.537Z,6.25
2019-02-22T10:31:51.185Z,8.00
2019-02-22T10:32:54.096Z,6.75
2019-02-22T10:33:56.777Z,7.00
2019-02-22T10:34:59.745Z,9.50
2019-02-22T10:36:03.686Z,11.50
2019-02-22T10:37:09.793Z,8.50
2019-02-22T10:38:14.092Z,8.50
2019-02-22T10:39:17.183Z,8.50
2019-02-22T10:40:20.076Z,9.00
2019-02-22T10:41:25.815Z,6.50
2019-02-22T10:42:28.474Z,6.00
2019-02-22T10:43:31.213Z,7.75
2019-02-22T10:44:34.561Z,6.00
2019-02-22T10:45:37.511Z,7.75
2019-02-22T10:46:47.879Z,6.00
2019-02-22T10:47:50.656Z,6.00
2019-02-22T10:49:02.367Z,6.50
2019-02-22T10:50:05.235Z,6.50
2019-02-22T10:51:08.837Z,6.00
2019-02-22T10:52:15.300Z,8.75
2019-02-22T10:53:18.486Z,7.00
2019-02-22T10:54:21.268Z,8.25
2019-02-22T10:55:27.159Z,9.00
2019-02-22T10:56:30.480Z,9.00
2019-02-22T10:57:33.451Z,7.00
2019-02-22T10:58:36.584Z,7.00
2019-02-22T10:59:42.425Z,9.00
2019-02-22T11:00:47.102Z,6.00
2019-02-22T11:02:01.625Z,8.50
2019-02-22T11:03:10.150Z,9.00
2019-02-22T11:04:15.013Z,7.00
2019-02-22T11:05:17.649Z,8.50
2019-02-22T11:06:20.551Z,6.50
2019-02-22T11:07:23.488Z,7.00
2019-02-22T11:08:26.373Z,9.00
2019-02-22T11:09:29.175Z,8.75
2019-02-22T11:10:37.194Z,9.25
2019-02-22T11:11:40.851Z,9.25
2019-02-22T11:12:48.048Z,9.00
2019-02-22T11:13:52.616Z,9.25
2019-02-22T11:14:58.545Z,8.00
2019-02-22T11:16:01.402Z,10.75
2019-02-22T11:17:04.918Z,9.75
2019-02-22T11:18:09.803Z,10.00
2019-02-22T11:19:12.620Z,9.75
2019-02-22T11:20:18.221Z,11.75
2019-02-22T11:21:21.564Z,9.00
2019-02-22T11:22:25.825Z,6.50
2019-02-22T11:23:34.819Z,9.00
2019-02-22T11:24:37.759Z,7.00
2019-02-22T11:25:40.527Z,9.00
2019-02-22T11:26:45.973Z,9.00
2019-02-22T11:27:49.760Z,9.50
2019-02-22T11:28:55.194Z,10.25
2019-02-22T11:29:59.663Z,9.00
2019-02-22T11:42:48.377Z,7.50
2019-02-22T11:43:51.318Z,7.75
2019-02-22T11:44:54.220Z,8.75
2019-02-22T11:45:59.543Z,10.50
2019-02-22T11:47:03.558Z,8.00
2019-02-22T11:48:09.641Z,7.50
2019-02-22T11:49:12.706Z,8.75
2019-02-22T11:50:15.930Z,11.00
2019-02-22T11:51:21.234Z,11.25
2019-02-22T11:52:24.034Z,14.75
2019-02-22T11:53:32.370Z,14.50
2019-02-22T11:54:35.282Z,12.00
2019-02-22T11:55:40.352Z,11.75
2019-02-22T11:56:45.833Z,8.00
2019-02-22T11:57:48.716Z,10.00
2019-02-22T11:58:51.387Z,9.25
2019-02-22T11:59:57.276Z,10.00
2019-02-22T12:01:01.752Z,10.00
2019-02-22T12:02:10.034Z,9.00
2019-02-22T12:03:24.367Z,10.00
2019-02-22T12:04:21.811Z,9.75
2019-02-22T12:05:24.699Z,9.25
2019-02-22T12:06:31.627Z,9.00
2019-02-22T12:07:34.563Z,13.25
2019-02-22T12:08:37.431Z,11.00
2019-02-22T12:09:45.223Z,10.00
2019-02-22T12:10:48.387Z,9.00
2019-02-22T12:11:54.139Z,8.50
2019-02-22T12:12:59.689Z,8.00
2019-02-22T12:14:02.659Z,11.25
2019-02-22T12:15:10.084Z,9.00
2019-02-22T12:16:12.816Z,9.25
2019-02-22T12:17:15.743Z,10.00
2019-02-22T12:18:21.028Z,16.75
2019-02-22T12:19:31.155Z,7.50
2019-02-22T12:20:32.035Z,9.75
2019-02-22T12:21:34.976Z,12.00
2019-02-22T12:22:37.852Z,9.25
2019-02-22T12:23:40.631Z,9.25
2019-02-22T12:24:46.503Z,9.50
2019-02-22T12:25:56.382Z,9.00
2019-02-22T12:27:00.753Z,9.50
2019-02-22T12:28:08.091Z,8.50
2019-02-22T12:29:10.904Z,10.00
2019-02-22T12:30:17.351Z,9.00
2019-02-22T12:31:20.685Z,16.75
2019-02-22T12:32:23.563Z,13.75
2019-02-22T12:33:27.918Z,10.25
2019-02-22T12:34:35.201Z,9.00
2019-02-22T12:35:37.654Z,7.00
2019-02-22T12:36:40.548Z,6.25
2019-02-22T12:37:44.017Z,10.00
2019-02-22T12:38:47.065Z,10.25
2019-02-22T12:39:52.378Z,9.25
2019-02-22T12:40:55.636Z,6.75
2019-02-22T12:42:01.452Z,7.00
2019-02-22T12:43:04.337Z,9.00
2019-02-22T12:44:07.466Z,8.00
2019-02-22T12:45:10.265Z,9.00
2019-02-22T12:46:13.169Z,9.00
2019-02-22T12:47:16.013Z,9.00
2019-02-22T12:48:18.849Z,10.75
2019-02-22T12:49:21.692Z,9.00
2019-02-22T12:50:25.024Z,7.00
2019-02-22T12:51:27.937Z,7.50
2019-02-22T12:52:30.801Z,9.00
2019-02-22T12:53:36.053Z,8.00
2019-02-22T12:54:41.804Z,10.50
2019-02-22T12:55:44.594Z,10.50
2019-02-22T12:56:57.461Z,12.50
2019-02-22T12:57:55.493Z,10.50
2019-02-22T12:58:58.358Z,10.00
2019-02-22T13:00:04.656Z,11.00
2019-02-22T13:01:07.475Z,9.75
2019-02-22T13:02:13.845Z,9.25
2019-02-22T13:03:22.843Z,10.25
2019-02-22T13:04:25.646Z,8.00
2019-02-22T13:05:28.486Z,10.00
2019-02-22T13:06:31.277Z,10.00
2019-02-22T13:07:34.525Z,8.75
2019-02-22T13:08:37.325Z,8.75
2019-02-22T13:09:40.678Z,9.25
2019-02-22T13:10:44.980Z,10.00
2019-02-22T13:11:47.897Z,9.50
2019-02-22T13:12:50.858Z,10.00
2019-02-22T13:13:55.868Z,9.50
2019-02-22T13:14:58.758Z,10.00
2019-02-22T13:16:01.653Z,11.00
2019-02-22T13:17:04.546Z,10.00
2019-02-22T13:18:08.633Z,10.00
2019-02-22T13:19:11.295Z,8.00
2019-02-22T13:20:17.117Z,10.00
2019-02-22T13:21:23.767Z,8.00
2019-02-22T13:22:26.613Z,8.00
2019-02-22T13:23:32.247Z,8.00
2019-02-22T13:24:35.233Z,8.50
2019-02-22T13:25:41.845Z,7.75
2019-02-22T13:26:45.552Z,7.00
2019-02-22T13:27:48.831Z,8.25
2019-02-22T13:28:52.623Z,8.25
2019-02-22T13:29:55.465Z,10.25
2019-02-22T13:30:58.351Z,7.00
2019-02-22T13:32:01.097Z,8.25
2019-02-22T13:33:07.137Z,8.50
2019-02-22T13:34:10.438Z,7.00
2019-02-22T13:35:13.126Z,7.00
2019-02-22T13:36:17.202Z,8.00
2019-02-22T13:37:21.697Z,10.25
2019-02-22T13:38:27.754Z,10.00
2019-02-22T13:39:30.588Z,6.50
2019-02-22T13:40:33.763Z,7.00
2019-02-22T13:41:36.631Z,9.50
2019-02-22T13:42:39.455Z,8.00
2019-02-22T13:43:42.293Z,10.25
2019-02-22T13:44:45.238Z,10.75
2019-02-22T13:45:49.112Z,8.00
2019-02-22T13:46:52.444Z,11.50
2019-02-22T13:47:55.701Z,10.50
2019-02-22T13:48:58.925Z,12.50
2019-02-22T13:50:01.773Z,13.00
2019-02-22T13:51:06.165Z,10.00
2019-02-22T13:52:10.321Z,9.50
2019-02-22T13:53:18.081Z,10.00
2019-02-22T13:54:23.521Z,10.25
2019-02-22T13:55:26.381Z,7.00
2019-02-22T13:56:30.069Z,8.00
2019-02-22T13:57:34.589Z,8.00
2019-02-22T13:58:37.415Z,7.00
2019-02-22T13:59:43.982Z,10.50
2019-02-22T14:00:46.365Z,8.50
2019-02-22T14:01:49.271Z,8.25
2019-02-22T14:02:52.171Z,8.00
2019-02-22T14:03:54.938Z,8.00
2019-02-22T14:04:57.729Z,8.00
2019-02-22T14:06:02.770Z,8.00
2019-02-22T14:07:05.036Z,8.25
2019-02-22T14:08:07.726Z,7.50
2019-02-22T14:09:12.733Z,7.00
2019-02-22T14:10:15.638Z,7.00
2019-02-22T14:11:23.035Z,7.50
2019-02-22T14:12:28.732Z,8.25
2019-02-22T14:13:32.084Z,8.75
2019-02-22T14:14:34.792Z,7.00
2019-02-22T14:15:39.869Z,9.25
2019-02-22T14:16:42.653Z,8.00
2019-02-22T14:17:49.297Z,12.00
2019-02-22T14:18:54.092Z,8.25
2019-02-22T14:19:57.309Z,10.00
2019-02-22T14:21:02.577Z,6.25
2019-02-22T14:22:05.454Z,8.25
2019-02-22T14:23:08.758Z,9.25